Time;durP1;ratioP1;P1;durP2;ratioP2;P2;SDS_P1;SDS_P2;PMS_P1;PMS_P2;Temp;Humidity;BMP_temperature;BMP_pressure;BME280_temperature;BME280_humidity;BME280_pressure;Samples;Min_cycle;Max_cycle;Signal;HPM_P1;HPM_P2
2022/06/29 00:01:41;;;;;;;23.00;21.80;;;;;;;;;;5092750;28;20440;-73
2022/06/29 00:04:08;;;;;;;22.97;21.67;;;;;;;;;;5092648;28;20444;-73
2022/06/29 00:06:35;;;;;;;22.83;21.43;;;;;;;;;;5092656;28;20500;-73
2022/06/29 00:09:02;;;;;;;23.17;21.77;;;;;;;;;;5092637;28;20545;-73
2022/06/29 00:11:30;;;;;;;22.50;21.20;;;;;;;;;;5092744;28;20437;-73
2022/06/29 00:13:58;;;;;;;23.30;22.00;;;;;;;;;;5092725;28;21068;-73
2022/06/29 00:16:26;;;;;;;22.90;21.60;;;;;;;;;;5092571;28;20434;-73
2022/06/29 00:18:53;;;;;;;23.50;22.07;;;;;;;;;;5092564;28;20437;-73
2022/06/29 00:21:20;;;;;;;22.83;21.63;;;;;;;;;;5094057;28;20435;-73
2022/06/29 00:23:48;;;;;;;23.47;22.17;;;;;;;;;;5096186;28;20445;-73
2022/06/29 00:26:15;;;;;;;22.73;21.33;;;;;;;;;;5096503;28;20464;-73
2022/06/29 00:28:42;;;;;;;22.57;21.17;;;;;;;;;;5096442;28;20439;-73
2022/06/29 00:31:11;;;;;;;23.60;22.20;;;;;;;;;;5096103;28;20916;-73
2022/06/29 00:33:38;;;;;;;23.30;21.87;;;;;;;;;;5096334;28;20767;-73
2022/06/29 00:36:06;;;;;;;23.67;22.27;;;;;;;;;;5095995;28;20441;-73
2022/06/29 00:38:33;;;;;;;22.70;21.40;;;;;;;;;;5095897;28;20442;-73
2022/06/29 00:41:01;;;;;;;22.63;21.43;;;;;;;;;;5096269;28;20515;-73
2022/06/29 00:43:28;;;;;;;22.83;21.63;;;;;;;;;;5096133;28;20449;-73
2022/06/29 00:45:55;;;;;;;23.50;22.10;;;;;;;;;;5095524;28;20893;-73
2022/06/29 00:48:24;;;;;;;22.63;21.33;;;;;;;;;;5095820;28;20445;-73
2022/06/29 00:50:52;;;;;;;23.10;21.83;;;;;;;;;;5095492;28;20447;-74
2022/06/29 00:53:21;;;;;;;22.77;21.47;;;;;;;;;;5095635;28;20429;-73
2022/06/29 00:55:48;;;;;;;22.90;21.60;;;;;;;;;;5095636;28;20437;-73
2022/06/29 00:58:17;;;;;;;22.30;21.10;;;;;;;;;;5096152;28;20408;-73
2022/06/29 01:00:44;;;;;;;22.97;21.57;;;;;;;;;;5095804;28;20770;-73
2022/06/29 01:03:12;;;;;;;23.33;22.03;;;;;;;;;;5095792;28;20441;-73
2022/06/29 01:05:41;;;;;;;22.87;21.67;;;;;;;;;;5095412;28;20481;-73
2022/06/29 01:08:08;;;;;;;22.87;21.57;;;;;;;;;;5095335;28;20921;-73
2022/06/29 01:10:36;;;;;;;23.43;22.00;;;;;;;;;;5095703;28;20445;-73
2022/06/29 01:13:03;;;;;;;22.73;21.33;;;;;;;;;;5095268;28;20444;-73
2022/06/29 01:15:30;;;;;;;23.53;22.13;;;;;;;;;;5095705;28;20426;-73
2022/06/29 01:17:58;;;;;;;23.20;21.90;;;;;;;;;;5095107;28;20950;-73
2022/06/29 01:20:25;;;;;;;23.53;22.20;;;;;;;;;;5095165;28;20445;-73
2022/06/29 01:22:54;;;;;;;22.47;21.27;;;;;;;;;;5095104;28;20412;-73
2022/06/29 01:25:21;;;;;;;23.43;22.13;;;;;;;;;;5095479;28;20830;-73
2022/06/29 01:27:49;;;;;;;22.90;21.70;;;;;;;;;;5095239;28;20430;-73
2022/06/29 01:30:16;;;;;;;23.50;22.10;;;;;;;;;;5095317;28;20412;-73
2022/06/29 01:32:44;;;;;;;23.67;22.17;;;;;;;;;;5094738;28;20873;-73
2022/06/29 01:35:12;;;;;;;23.20;21.60;;;;;;;;;;5095165;28;20461;-73
2022/06/29 01:37:39;;;;;;;22.67;21.47;;;;;;;;;;5095094;28;20416;-73
2022/06/29 01:40:09;;;;;;;22.83;21.50;;;;;;;;;;5095076;28;20421;-73
2022/06/29 01:42:37;;;;;;;22.97;21.67;;;;;;;;;;5094698;28;20416;-73
2022/06/29 01:45:04;;;;;;;22.67;21.30;;;;;;;;;;5094820;28;20433;-73
2022/06/29 01:47:32;;;;;;;23.40;22.00;;;;;;;;;;5094471;28;20476;-73
2022/06/29 01:49:59;;;;;;;22.57;21.37;;;;;;;;;;5094570;28;20471;-73
2022/06/29 01:52:26;;;;;;;22.97;21.77;;;;;;;;;;5094897;28;20412;-73
2022/06/29 01:54:54;;;;;;;22.93;21.63;;;;;;;;;;5094753;28;20903;-73
2022/06/29 01:57:22;;;;;;;23.47;21.93;;;;;;;;;;5094559;28;20403;-73
2022/06/29 01:59:50;;;;;;;22.70;21.40;;;;;;;;;;5094656;28;20425;-73
2022/06/29 02:02:17;;;;;;;24.27;22.90;;;;;;;;;;5094851;28;20419;-73
2022/06/29 02:04:44;;;;;;;22.87;21.57;;;;;;;;;;5094632;28;20491;-73
2022/06/29 02:07:12;;;;;;;23.67;22.10;;;;;;;;;;5094383;28;20500;-73
2022/06/29 02:09:39;;;;;;;23.50;22.20;;;;;;;;;;5094235;28;20438;-73
2022/06/29 02:12:06;;;;;;;23.00;21.60;;;;;;;;;;5094199;28;20935;-73
2022/06/29 02:14:35;;;;;;;23.20;21.57;;;;;;;;;;5094357;28;20434;-73
2022/06/29 02:17:03;;;;;;;23.90;22.60;;;;;;;;;;5094332;28;20437;-73
2022/06/29 02:19:30;;;;;;;23.03;21.73;;;;;;;;;;5094425;28;20400;-73
2022/06/29 02:21:57;;;;;;;22.30;21.00;;;;;;;;;;5093994;28;20453;-73
2022/06/29 02:24:25;;;;;;;23.60;21.90;;;;;;;;;;5094267;28;20408;-73
2022/06/29 02:26:52;;;;;;;23.67;22.30;;;;;;;;;;5094174;28;20504;-73
2022/06/29 02:29:19;;;;;;;23.30;22.00;;;;;;;;;;5094080;28;20906;-73
2022/06/29 02:34:46;;;;;;;23.60;22.20;;;;;;;;;;5093862;28;20933;-74
2022/06/29 02:37:14;;;;;;;22.70;21.40;;;;;;;;;;5093981;28;20442;-73
2022/06/29 02:39:43;;;;;;;24.10;22.60;;;;;;;;;;5094270;28;20445;-73
2022/06/29 02:42:11;;;;;;;23.80;22.27;;;;;;;;;;5093949;28;20442;-73
2022/06/29 02:44:38;;;;;;;23.20;21.90;;;;;;;;;;5092933;28;20791;-73
2022/06/29 02:47:07;;;;;;;24.13;22.63;;;;;;;;;;5093243;28;20467;-73
2022/06/29 02:49:34;;;;;;;23.73;22.23;;;;;;;;;;5093493;28;20526;-73
2022/06/29 02:52:02;;;;;;;23.80;22.13;;;;;;;;;;5093696;28;20445;-73
2022/06/29 02:54:29;;;;;;;23.53;22.13;;;;;;;;;;5093619;28;20422;-73
2022/06/29 02:56:57;;;;;;;23.23;21.77;;;;;;;;;;5093292;28;20440;-73
2022/06/29 02:59:24;;;;;;;23.60;22.10;;;;;;;;;;5093544;28;20429;-73
2022/06/29 03:01:52;;;;;;;23.80;22.27;;;;;;;;;;5093235;28;20408;-73
2022/06/29 03:04:20;;;;;;;24.30;23.00;;;;;;;;;;5093191;28;20500;-73
2022/06/29 03:06:48;;;;;;;25.20;23.70;;;;;;;;;;5093018;28;20480;-73
2022/06/29 03:09:15;;;;;;;24.23;22.73;;;;;;;;;;5093704;28;20411;-73
2022/06/29 03:11:42;;;;;;;24.10;22.70;;;;;;;;;;5093105;28;20915;-73
2022/06/29 03:14:10;;;;;;;24.20;22.80;;;;;;;;;;5093100;28;20766;-73
2022/06/29 03:16:37;;;;;;;22.17;20.97;;;;;;;;;;5093354;28;20411;-73
2022/06/29 03:19:05;;;;;;;23.00;21.70;;;;;;;;;;5093089;28;20406;-73
2022/06/29 03:21:33;;;;;;;24.10;22.50;;;;;;;;;;5093483;28;20449;-73
2022/06/29 03:24:03;;;;;;;24.03;22.60;;;;;;;;;;5092976;28;20440;-73
2022/06/29 03:26:31;;;;;;;23.60;22.30;;;;;;;;;;5092742;28;20559;-73
2022/06/29 03:28:58;;;;;;;25.03;22.93;;;;;;;;;;5093194;28;20440;-73
2022/06/29 03:31:25;;;;;;;23.27;21.97;;;;;;;;;;5093197;28;20487;-73
2022/06/29 03:33:53;;;;;;;24.13;22.50;;;;;;;;;;5093074;28;20465;-73
2022/06/29 03:36:20;;;;;;;23.33;22.03;;;;;;;;;;5092878;28;20397;-73
2022/06/29 03:38:49;;;;;;;23.43;22.10;;;;;;;;;;5093055;28;20437;-73
2022/06/29 03:41:16;;;;;;;22.57;21.20;;;;;;;;;;5093027;28;20415;-73
2022/06/29 03:43:43;;;;;;;23.60;22.10;;;;;;;;;;5093015;28;20443;-73
2022/06/29 03:46:11;;;;;;;23.33;21.73;;;;;;;;;;5092441;28;20476;-73
2022/06/29 03:48:38;;;;;;;23.63;22.23;;;;;;;;;;5092505;28;20451;-73
2022/06/29 03:51:05;;;;;;;23.43;22.03;;;;;;;;;;5092471;28;20463;-73
2022/06/29 03:53:33;;;;;;;23.10;21.63;;;;;;;;;;5092590;28;20425;-75
2022/06/29 03:56:02;;;;;;;22.83;21.53;;;;;;;;;;5093926;28;20416;-73
2022/06/29 03:58:29;;;;;;;22.93;21.53;;;;;;;;;;5097089;28;20444;-73
2022/06/29 04:00:56;;;;;;;22.40;21.10;;;;;;;;;;5096945;28;20410;-73
2022/06/29 04:03:24;;;;;;;24.40;22.90;;;;;;;;;;5096603;28;20418;-73
2022/06/29 04:05:51;;;;;;;23.00;21.70;;;;;;;;;;5096783;28;20412;-73
2022/06/29 04:08:19;;;;;;;22.63;21.43;;;;;;;;;;5096635;28;20404;-73
2022/06/29 04:10:46;;;;;;;23.43;22.03;;;;;;;;;;5096797;28;20441;-74
2022/06/29 04:13:15;;;;;;;23.07;21.77;;;;;;;;;;5097022;28;20713;-73
2022/06/29 04:15:43;;;;;;;22.63;21.40;;;;;;;;;;5096655;28;20420;-73
2022/06/29 04:18:10;;;;;;;23.50;22.00;;;;;;;;;;5096603;28;20790;-73
2022/06/29 04:23:22;;;;;;;25.60;24.20;;;;;;;;;;5096584;28;20505;-73
2022/06/29 04:25:50;;;;;;;25.40;24.00;;;;;;;;;;5096398;28;20442;-73
2022/06/29 04:28:19;;;;;;;23.87;22.57;;;;;;;;;;5096165;28;20412;-74
2022/06/29 04:30:46;;;;;;;24.07;22.77;;;;;;;;;;5096383;28;20424;-73
2022/06/29 04:33:13;;;;;;;24.10;22.70;;;;;;;;;;5096461;28;20446;-73
2022/06/29 04:35:41;;;;;;;23.93;22.50;;;;;;;;;;5095962;28;20947;-73
2022/06/29 04:38:08;;;;;;;23.33;21.93;;;;;;;;;;5096528;28;20784;-73
2022/06/29 04:40:35;;;;;;;23.43;21.97;;;;;;;;;;5095813;28;20971;-73
2022/06/29 04:43:03;;;;;;;23.67;22.37;;;;;;;;;;5096069;28;20906;-73
2022/06/29 04:48:16;;;;;;;24.10;22.70;;;;;;;;;;5095809;28;20400;-74
2022/06/29 04:50:44;;;;;;;23.30;22.00;;;;;;;;;;5095757;28;20797;-73
2022/06/29 04:53:11;;;;;;;22.50;21.20;;;;;;;;;;5095785;28;20428;-73
2022/06/29 04:55:38;;;;;;;23.37;22.07;;;;;;;;;;5095887;28;20418;-73
2022/06/29 04:58:06;;;;;;;24.57;22.97;;;;;;;;;;5095595;28;20895;-73
2022/06/29 05:00:34;;;;;;;23.77;22.40;;;;;;;;;;5095884;28;20417;-73
2022/06/29 05:03:02;;;;;;;23.60;22.10;;;;;;;;;;5095883;28;20501;-73
2022/06/29 05:05:29;;;;;;;23.30;21.90;;;;;;;;;;5095415;28;20434;-73
2022/06/29 05:07:57;;;;;;;23.73;22.33;;;;;;;;;;5094837;28;20459;-73
2022/06/29 05:10:27;;;;;;;24.10;22.70;;;;;;;;;;5095682;28;20408;-74
2022/06/29 05:12:54;;;;;;;23.60;22.30;;;;;;;;;;5095529;28;20931;-74
2022/06/29 05:15:22;;;;;;;24.23;22.83;;;;;;;;;;5095153;28;20408;-74
2022/06/29 05:17:50;;;;;;;24.27;22.77;;;;;;;;;;5095533;28;20407;-74
2022/06/29 05:20:20;;;;;;;25.33;23.67;;;;;;;;;;5095346;28;20433;-73
2022/06/29 05:22:47;;;;;;;23.70;22.30;;;;;;;;;;5095216;28;20939;-74
2022/06/29 05:25:15;;;;;;;23.90;22.50;;;;;;;;;;5095332;28;20439;-73
2022/06/29 05:27:42;;;;;;;25.00;23.60;;;;;;;;;;5095303;28;20488;-73
2022/06/29 05:30:10;;;;;;;24.60;23.10;;;;;;;;;;5095163;28;20451;-73
2022/06/29 05:32:37;;;;;;;25.17;23.67;;;;;;;;;;5094840;28;20507;-73
2022/06/29 05:35:07;;;;;;;25.50;24.00;;;;;;;;;;5095455;28;20437;-73
2022/06/29 05:37:34;;;;;;;25.40;23.80;;;;;;;;;;5094650;28;20441;-73
2022/06/29 05:40:02;;;;;;;24.90;23.50;;;;;;;;;;5095078;28;20404;-73
2022/06/29 05:42:29;;;;;;;25.87;24.37;;;;;;;;;;5094741;28;20454;-73
2022/06/29 05:44:57;;;;;;;25.50;24.00;;;;;;;;;;5095124;28;20405;-73
2022/06/29 05:47:24;;;;;;;24.10;22.80;;;;;;;;;;5076784;28;20464;-73
2022/06/29 05:49:51;;;;;;;25.20;23.70;;;;;;;;;;5094528;28;20488;-73
2022/06/29 05:52:20;;;;;;;27.27;25.60;;;;;;;;;;5094443;28;20440;-73
2022/06/29 05:54:47;;;;;;;25.13;23.73;;;;;;;;;;5094723;28;20424;-73
2022/06/29 05:57:15;;;;;;;25.17;23.57;;;;;;;;;;5094322;28;20793;-74
2022/06/29 05:59:42;;;;;;;24.63;23.23;;;;;;;;;;5094439;28;20464;-74
2022/06/29 06:02:09;;;;;;;23.70;22.30;;;;;;;;;;5094491;28;20436;-74
2022/06/29 06:04:37;;;;;;;24.93;23.30;;;;;;;;;;5094220;28;20440;-73
2022/06/29 06:07:04;;;;;;;24.40;23.00;;;;;;;;;;5094410;28;20485;-75
2022/06/29 06:09:33;;;;;;;25.20;23.70;;;;;;;;;;5094130;28;20833;-81
2022/06/29 06:12:00;;;;;;;25.60;24.10;;;;;;;;;;5094662;28;20446;-75
2022/06/29 06:14:28;;;;;;;26.53;24.93;;;;;;;;;;5094376;28;20877;-76
2022/06/29 06:16:55;;;;;;;25.13;23.73;;;;;;;;;;5094224;28;20839;-75
2022/06/29 06:19:22;;;;;;;25.80;24.20;;;;;;;;;;5092897;28;21175;-75
2022/06/29 06:21:50;;;;;;;25.10;23.60;;;;;;;;;;5094027;28;20765;-75
2022/06/29 06:24:17;;;;;;;25.37;23.87;;;;;;;;;;5094240;28;20440;-75
2022/06/29 06:26:46;;;;;;;24.90;23.40;;;;;;;;;;5094054;28;20492;-75
2022/06/29 06:29:13;;;;;;;25.10;23.63;;;;;;;;;;5094108;28;20437;-76
2022/06/29 06:31:40;;;;;;;25.73;24.30;;;;;;;;;;5094064;28;20460;-74
2022/06/29 06:34:08;;;;;;;25.00;23.50;;;;;;;;;;5094156;28;20437;-75
2022/06/29 06:36:35;;;;;;;24.50;23.07;;;;;;;;;;5093694;28;20483;-75
2022/06/29 06:39:02;;;;;;;26.00;24.40;;;;;;;;;;5094248;28;20444;-75
2022/06/29 06:41:29;;;;;;;24.53;23.03;;;;;;;;;;5093932;28;20418;-74
2022/06/29 06:43:58;;;;;;;26.17;24.50;;;;;;;;;;5093832;28;20434;-75
2022/06/29 06:46:26;;;;;;;26.00;24.50;;;;;;;;;;5093618;28;20444;-74
2022/06/29 06:48:54;;;;;;;24.90;23.50;;;;;;;;;;5093609;28;20433;-75
2022/06/29 06:51:21;;;;;;;25.00;23.60;;;;;;;;;;5093266;28;20495;-74
2022/06/29 06:53:49;;;;;;;24.73;23.23;;;;;;;;;;5093634;28;20456;-75
2022/06/29 06:56:16;;;;;;;25.83;24.33;;;;;;;;;;5093626;28;20437;-75
2022/06/29 06:58:44;;;;;;;24.53;23.13;;;;;;;;;;5093400;28;20419;-74
2022/06/29 07:01:13;;;;;;;26.43;24.93;;;;;;;;;;5093698;28;20946;-75
2022/06/29 07:03:40;;;;;;;25.17;23.67;;;;;;;;;;5093529;28;20420;-74
2022/06/29 07:06:08;;;;;;;26.17;24.47;;;;;;;;;;5093602;28;20446;-78
2022/06/29 07:08:37;;;;;;;25.00;23.50;;;;;;;;;;5093434;28;20530;-79
2022/06/29 07:11:05;;;;;;;25.77;24.37;;;;;;;;;;5093174;28;20424;-78
2022/06/29 07:13:33;;;;;;;25.03;23.43;;;;;;;;;;5093530;28;20746;-82
2022/06/29 07:16:02;;;;;;;27.27;24.90;;;;;;;;;;5093445;28;20450;-79
2022/06/29 07:18:31;;;;;;;26.30;24.70;;;;;;;;;;5092579;28;20757;-81
2022/06/29 07:20:58;;;;;;;26.17;24.53;;;;;;;;;;5080470;28;20439;-77
2022/06/29 07:23:27;;;;;;;27.27;25.43;;;;;;;;;;5092867;28;20877;-77
2022/06/29 07:25:54;;;;;;;25.90;24.30;;;;;;;;;;5092810;28;20446;-77
2022/06/29 07:28:22;;;;;;;26.90;25.20;;;;;;;;;;5093130;28;20585;-78
2022/06/29 07:30:49;;;;;;;26.40;24.80;;;;;;;;;;5092952;28;20469;-77
2022/06/29 07:33:17;;;;;;;26.27;24.70;;;;;;;;;;5093205;28;20422;-76
2022/06/29 07:35:45;;;;;;;26.37;24.53;;;;;;;;;;5093140;28;20419;-76
2022/06/29 07:38:13;;;;;;;25.57;24.07;;;;;;;;;;5093056;28;20445;-76
2022/06/29 07:40:40;;;;;;;26.47;24.57;;;;;;;;;;5093105;28;20409;-77
2022/06/29 07:43:07;;;;;;;25.57;23.97;;;;;;;;;;5092744;28;20885;-77
2022/06/29 07:45:35;;;;;;;26.13;24.63;;;;;;;;;;5093082;28;20408;-77
2022/06/29 07:48:02;;;;;;;26.50;24.90;;;;;;;;;;5092346;28;20887;-76
2022/06/29 07:50:30;;;;;;;26.40;24.70;;;;;;;;;;5092832;28;20464;-77
2022/06/29 07:52:58;;;;;;;27.63;25.90;;;;;;;;;;5092889;28;20441;-77
2022/06/29 07:55:26;;;;;;;28.00;26.20;;;;;;;;;;5092630;28;20433;-77
2022/06/29 07:57:53;;;;;;;27.17;25.57;;;;;;;;;;5092521;28;20881;-77
2022/06/29 08:00:21;;;;;;;27.00;25.30;;;;;;;;;;5092903;28;20408;-76
2022/06/29 08:02:51;;;;;;;27.33;25.70;;;;;;;;;;5092493;28;20438;-77
2022/06/29 08:05:18;;;;;;;27.07;25.20;;;;;;;;;;5092762;28;20412;-77
2022/06/29 08:07:46;;;;;;;27.67;25.97;;;;;;;;;;5092561;28;20481;-77
2022/06/29 08:10:14;;;;;;;27.33;25.83;;;;;;;;;;5092396;28;20966;-77
2022/06/29 08:12:41;;;;;;;27.60;25.77;;;;;;;;;;5092478;28;20440;-76
2022/06/29 08:15:09;;;;;;;27.47;25.87;;;;;;;;;;5092377;28;20935;-77
2022/06/29 08:17:37;;;;;;;26.27;24.77;;;;;;;;;;5092789;28;20413;-77
2022/06/29 08:20:05;;;;;;;26.43;24.83;;;;;;;;;;5092210;28;20419;-77
2022/06/29 08:22:32;;;;;;;26.40;24.80;;;;;;;;;;5092682;28;20446;-77
2022/06/29 08:25:00;;;;;;;26.47;24.87;;;;;;;;;;5092454;28;20495;-77
2022/06/29 08:27:29;;;;;;;27.37;25.57;;;;;;;;;;5092481;28;20488;-77
2022/06/29 08:29:56;;;;;;;26.27;24.77;;;;;;;;;;5092260;28;20438;-77
2022/06/29 08:32:23;;;;;;;27.20;25.60;;;;;;;;;;5092251;28;20437;-77
2022/06/29 08:34:51;;;;;;;25.70;24.20;;;;;;;;;;5092381;28;20410;-77
2022/06/29 08:37:18;;;;;;;26.00;24.40;;;;;;;;;;5092475;28;20492;-77
2022/06/29 08:39:46;;;;;;;25.80;24.40;;;;;;;;;;5092175;28;20430;-77
2022/06/29 08:42:13;;;;;;;25.70;24.30;;;;;;;;;;5093583;28;20420;-77
2022/06/29 08:44:42;;;;;;;26.17;24.67;;;;;;;;;;5095965;28;20408;-77
2022/06/29 08:47:10;;;;;;;27.40;25.60;;;;;;;;;;5095978;28;20436;-77
2022/06/29 08:49:38;;;;;;;26.43;24.77;;;;;;;;;;5095646;28;20513;-77
2022/06/29 08:52:06;;;;;;;26.73;25.07;;;;;;;;;;5096065;28;20440;-77
2022/06/29 08:54:33;;;;;;;26.27;24.67;;;;;;;;;;5095576;28;20454;-77
2022/06/29 08:57:01;;;;;;;26.97;25.17;;;;;;;;;;5095896;28;20441;-77
2022/06/29 08:59:28;;;;;;;25.77;24.27;;;;;;;;;;5095659;28;20416;-77
2022/06/29 09:01:57;;;;;;;26.33;24.73;;;;;;;;;;5095550;28;20877;-77
2022/06/29 09:04:25;;;;;;;26.40;24.80;;;;;;;;;;5095829;28;20903;-77
2022/06/29 09:06:54;;;;;;;26.47;24.97;;;;;;;;;;5095435;28;20431;-78
2022/06/29 09:09:22;;;;;;;26.70;25.10;;;;;;;;;;5095645;28;20469;-77
2022/06/29 09:11:51;;;;;;;26.20;24.70;;;;;;;;;;5095721;28;20454;-76
2022/06/29 09:14:19;;;;;;;26.03;24.43;;;;;;;;;;5095582;28;20448;-77
2022/06/29 09:17:01;;;;;;;26.70;25.10;;;;;;;;;;5095583;28;20433;-77
2022/06/29 09:19:31;;;;;;;26.93;25.27;;;;;;;;;;5091618;28;20479;-77
2022/06/29 09:21:59;;;;;;;26.80;25.20;;;;;;;;;;5095474;28;20766;-77
2022/06/29 09:24:28;;;;;;;26.37;24.87;;;;;;;;;;5095035;28;20427;-77
2022/06/29 09:26:55;;;;;;;27.60;26.00;;;;;;;;;;5095339;28;20419;-76
2022/06/29 09:29:24;;;;;;;27.23;25.50;;;;;;;;;;5095438;28;20521;-77
2022/06/29 09:32:08;;;;;;;27.23;25.70;;;;;;;;;;5095278;28;20409;-77
2022/06/29 09:34:37;;;;;;;27.30;25.63;;;;;;;;;;5094949;28;20484;-77
2022/06/29 09:37:06;;;;;;;25.40;23.80;;;;;;;;;;5095207;28;20408;-77
2022/06/29 09:39:33;;;;;;;26.30;24.70;;;;;;;;;;5095356;28;20433;-77
2022/06/29 09:42:01;;;;;;;27.20;25.70;;;;;;;;;;5095127;28;20899;-77
2022/06/29 09:44:28;;;;;;;27.70;26.10;;;;;;;;;;5095036;28;20422;-77
2022/06/29 09:46:57;;;;;;;27.43;25.80;;;;;;;;;;5094427;28;20452;-77
2022/06/29 09:49:26;;;;;;;27.13;25.63;;;;;;;;;;5094471;28;20475;-78
2022/06/29 09:51:56;;;;;;;27.93;26.30;;;;;;;;;;5094590;28;20848;-78
2022/06/29 09:54:26;;;;;;;28.40;26.80;;;;;;;;;;5094797;28;20439;-77
2022/06/29 09:56:54;;;;;;;27.07;25.47;;;;;;;;;;5094454;28;20452;-77
2022/06/29 10:02:34;;;;;;;27.27;25.77;;;;;;;;;;5094803;28;20423;-78
2022/06/29 10:05:00;;;;;;;28.13;26.43;;;;;;;;;;5094777;28;20399;-77
2022/06/29 10:07:30;;;;;;;27.80;26.20;;;;;;;;;;5094374;28;20407;-77
2022/06/29 10:09:58;;;;;;;27.63;26.03;;;;;;;;;;5094297;28;20456;-76
2022/06/29 10:15:21;;;;;;;27.53;26.03;;;;;;;;;;5094199;28;20413;-77
2022/06/29 10:17:52;;;;;;;28.63;27.03;;;;;;;;;;5094230;28;20473;-77
2022/06/29 10:20:28;;;;;;;28.43;26.73;;;;;;;;;;5094208;28;20420;-77
2022/06/29 10:22:57;;;;;;;28.80;27.17;;;;;;;;;;5094317;28;20412;-77
2022/06/29 10:25:27;;;;;;;28.30;26.73;;;;;;;;;;5094099;28;20404;-77
2022/06/29 10:28:16;;;;;;;27.40;25.90;;;;;;;;;;5094130;28;20432;-77
2022/06/29 10:30:44;;;;;;;30.13;28.23;;;;;;;;;;5094366;28;20444;-77
2022/06/29 10:33:30;;;;;;;28.13;26.63;;;;;;;;;;5094135;28;20829;-77
2022/06/29 10:36:00;;;;;;;28.57;26.87;;;;;;;;;;5094108;28;20520;-77
2022/06/29 10:38:31;;;;;;;27.47;25.77;;;;;;;;;;5093672;28;20442;-77
2022/06/29 10:41:09;;;;;;;27.13;25.53;;;;;;;;;;5094015;28;20470;-77
2022/06/29 10:43:37;;;;;;;27.47;25.87;;;;;;;;;;5093641;28;20464;-77
2022/06/29 10:46:05;;;;;;;27.80;26.00;;;;;;;;;;5093745;28;20440;-77
2022/06/29 10:48:32;;;;;;;28.10;26.50;;;;;;;;;;5093622;28;20856;-77
2022/06/29 10:51:00;;;;;;;28.10;26.30;;;;;;;;;;5093372;28;20481;-77
2022/06/29 10:53:30;;;;;;;28.30;26.70;;;;;;;;;;5093470;28;20788;-77
2022/06/29 10:55:57;;;;;;;28.80;27.00;;;;;;;;;;5093678;28;20437;-77
2022/06/29 10:58:25;;;;;;;27.17;25.57;;;;;;;;;;5093675;28;20461;-77
2022/06/29 11:00:53;;;;;;;27.50;26.00;;;;;;;;;;5093655;28;21121;-77
2022/06/29 11:03:22;;;;;;;27.40;25.70;;;;;;;;;;5093286;28;20469;-77
2022/06/29 11:15:39;;;;;;;27.70;26.10;;;;;;;;;;5093218;28;20434;-77
2022/06/29 11:16:56;;;;;;;27.10;25.50;;;;;;;;;;5093080;28;20483;-77
2022/06/29 11:19:28;;;;;;;27.17;25.50;;;;;;;;;;5093106;28;20836;-77
2022/06/29 11:22:07;;;;;;;27.90;26.30;;;;;;;;;;5092977;28;20847;-77
2022/06/29 11:24:50;;;;;;;27.73;26.03;;;;;;;;;;5092905;28;20411;-78
2022/06/29 11:27:30;;;;;;;28.30;26.70;;;;;;;;;;5093170;28;20411;-77
2022/06/29 11:29:58;;;;;;;27.80;26.27;;;;;;;;;;5092810;28;20917;-77
2022/06/29 11:32:27;;;;;;;27.97;26.30;;;;;;;;;;5093184;28;20406;-77
2022/06/29 11:34:59;;;;;;;27.17;25.57;;;;;;;;;;5093082;28;20423;-77
2022/06/29 11:37:27;;;;;;;27.33;25.67;;;;;;;;;;5093072;28;20415;-77
2022/06/29 11:39:55;;;;;;;27.70;25.90;;;;;;;;;;5093087;28;20401;-77
2022/06/29 11:45:09;;;;;;;28.20;26.50;;;;;;;;;;5092896;28;20436;-77
2022/06/29 11:47:36;;;;;;;28.90;27.07;;;;;;;;;;5092802;28;20447;-77
2022/06/29 11:50:13;;;;;;;28.90;27.23;;;;;;;;;;5092219;28;20513;-77
2022/06/29 11:52:41;;;;;;;27.63;26.03;;;;;;;;;;5092998;28;20427;-77
2022/06/29 11:55:10;;;;;;;27.73;26.13;;;;;;;;;;5092621;28;20442;-77
2022/06/29 11:57:37;;;;;;;27.40;25.60;;;;;;;;;;5092853;28;20412;-77
2022/06/29 12:00:06;;;;;;;27.60;26.00;;;;;;;;;;5092484;28;20420;-77
2022/06/29 12:02:34;;;;;;;27.60;26.10;;;;;;;;;;5092826;28;20476;-77
2022/06/29 12:05:02;;;;;;;28.03;26.53;;;;;;;;;;5092819;28;20473;-77
2022/06/29 12:07:30;;;;;;;28.97;27.33;;;;;;;;;;5092485;28;20536;-77
2022/06/29 12:09:59;;;;;;;29.43;27.63;;;;;;;;;;5092577;28;20572;-77
2022/06/29 12:12:28;;;;;;;29.17;27.47;;;;;;;;;;5074492;28;20420;-78
2022/06/29 12:14:55;;;;;;;28.70;27.13;;;;;;;;;;5092516;28;20469;-77
2022/06/29 12:17:22;;;;;;;29.43;27.80;;;;;;;;;;5094177;28;20441;-77
2022/06/29 12:19:50;;;;;;;28.40;26.70;;;;;;;;;;5096126;28;20782;-77
2022/06/29 12:22:19;;;;;;;28.90;27.30;;;;;;;;;;5096595;28;20408;-77
2022/06/29 12:24:47;;;;;;;31.00;29.20;;;;;;;;;;5096525;28;20431;-77
2022/06/29 12:27:14;;;;;;;29.80;28.20;;;;;;;;;;5096491;28;20400;-77
2022/06/29 12:29:43;;;;;;;29.80;27.90;;;;;;;;;;5096704;28;20451;-77
2022/06/29 12:32:10;;;;;;;30.20;28.40;;;;;;;;;;5096408;28;20464;-77
2022/06/29 12:34:40;;;;;;;29.43;27.73;;;;;;;;;;5096290;28;20431;-78
2022/06/29 12:37:08;;;;;;;30.20;28.50;;;;;;;;;;5096285;28;20451;-77
2022/06/29 12:39:35;;;;;;;30.80;29.00;;;;;;;;;;5096284;28;20455;-78
2022/06/29 12:42:03;;;;;;;28.63;27.03;;;;;;;;;;5096033;28;20415;-78
2022/06/29 12:44:30;;;;;;;30.47;28.57;;;;;;;;;;5096272;28;20435;-78
2022/06/29 12:46:59;;;;;;;29.67;27.70;;;;;;;;;;5096120;28;20465;-78
2022/06/29 12:49:27;;;;;;;29.70;28.10;;;;;;;;;;5095797;28;20485;-78
2022/06/29 12:51:54;;;;;;;28.33;26.63;;;;;;;;;;5096106;28;20412;-77
2022/06/29 12:54:21;;;;;;;29.30;27.50;;;;;;;;;;5096101;28;20808;-77
2022/06/29 12:56:49;;;;;;;28.43;26.83;;;;;;;;;;5096056;28;20490;-77
2022/06/29 12:59:16;;;;;;;27.20;25.60;;;;;;;;;;5096184;28;20408;-77
2022/06/29 13:01:44;;;;;;;27.90;26.30;;;;;;;;;;5095813;28;20562;-77
2022/06/29 13:04:13;;;;;;;28.73;26.83;;;;;;;;;;5095831;28;20412;-77
2022/06/29 13:06:40;;;;;;;27.70;26.20;;;;;;;;;;5095861;28;20499;-78
2022/06/29 13:09:07;;;;;;;28.50;26.90;;;;;;;;;;5095884;28;20507;-78
2022/06/29 13:11:36;;;;;;;28.13;26.33;;;;;;;;;;5095455;28;20423;-77
2022/06/29 13:14:03;;;;;;;27.97;26.00;;;;;;;;;;5095323;28;20536;-77
2022/06/29 13:16:31;;;;;;;27.87;26.27;;;;;;;;;;5095585;28;20416;-78
2022/06/29 13:18:58;;;;;;;29.03;27.23;;;;;;;;;;5095619;28;20420;-77
2022/06/29 13:21:27;;;;;;;27.97;26.47;;;;;;;;;;5095110;28;20434;-77
2022/06/29 13:23:54;;;;;;;27.43;25.83;;;;;;;;;;5095446;28;20444;-77
2022/06/29 13:26:22;;;;;;;29.40;27.70;;;;;;;;;;5095438;28;20484;-77
2022/06/29 13:28:49;;;;;;;29.63;28.03;;;;;;;;;;5094616;28;20437;-78
2022/06/29 13:31:16;;;;;;;28.90;27.30;;;;;;;;;;5095305;28;20426;-77
2022/06/29 13:33:44;;;;;;;28.63;26.73;;;;;;;;;;5094921;28;20905;-77
2022/06/29 13:36:11;;;;;;;28.27;26.67;;;;;;;;;;5095178;28;20463;-78
2022/06/29 13:38:40;;;;;;;28.83;27.23;;;;;;;;;;5095192;28;20416;-77
2022/06/29 13:41:07;;;;;;;27.57;25.87;;;;;;;;;;5094816;28;20415;-77
2022/06/29 13:43:34;;;;;;;29.33;27.53;;;;;;;;;;5095121;28;20429;-77
2022/06/29 13:46:02;;;;;;;28.00;26.27;;;;;;;;;;5094954;28;20450;-78
2022/06/29 13:48:29;;;;;;;28.20;26.60;;;;;;;;;;5094851;28;20491;-78
2022/06/29 13:50:56;;;;;;;28.40;26.70;;;;;;;;;;5094675;28;20497;-78
2022/06/29 13:53:24;;;;;;;28.13;26.53;;;;;;;;;;5094535;28;20445;-77
2022/06/29 13:55:53;;;;;;;28.43;26.53;;;;;;;;;;5094839;28;20434;-77
2022/06/29 13:58:21;;;;;;;27.57;25.77;;;;;;;;;;5094831;28;20417;-77
2022/06/29 14:00:49;;;;;;;27.03;25.20;;;;;;;;;;5094755;28;20420;-78
2022/06/29 14:03:16;;;;;;;27.80;26.00;;;;;;;;;;5094418;28;20433;-77
2022/06/29 14:05:43;;;;;;;26.80;25.20;;;;;;;;;;5094660;28;20438;-77
2022/06/29 14:08:11;;;;;;;27.30;25.60;;;;;;;;;;5094318;28;20412;-78
2022/06/29 14:10:38;;;;;;;27.23;25.63;;;;;;;;;;5094528;28;20480;-77
2022/06/29 14:13:07;;;;;;;27.13;25.50;;;;;;;;;;5094423;28;20832;-77
2022/06/29 14:15:34;;;;;;;27.57;25.97;;;;;;;;;;5094069;28;20427;-77
2022/06/29 14:18:02;;;;;;;28.07;26.37;;;;;;;;;;5093968;28;20894;-77
2022/06/29 14:20:30;;;;;;;28.53;26.93;;;;;;;;;;5094386;28;20480;-77
2022/06/29 14:22:57;;;;;;;27.60;26.00;;;;;;;;;;5094295;28;20437;-78
2022/06/29 14:25:24;;;;;;;27.57;25.97;;;;;;;;;;5094274;28;20435;-78
2022/06/29 14:27:52;;;;;;;28.70;26.90;;;;;;;;;;5094301;28;20438;-77
2022/06/29 14:30:21;;;;;;;28.97;27.07;;;;;;;;;;5094139;28;20543;-78
2022/06/29 14:32:48;;;;;;;28.10;26.07;;;;;;;;;;5094108;28;20521;-77
2022/06/29 14:35:16;;;;;;;28.47;26.77;;;;;;;;;;5093730;28;20419;-78
2022/06/29 14:37:43;;;;;;;27.70;26.00;;;;;;;;;;5093781;28;20416;-77
2022/06/29 14:40:11;;;;;;;28.80;27.10;;;;;;;;;;5092869;28;20961;-77
2022/06/29 14:42:39;;;;;;;29.93;28.23;;;;;;;;;;5093959;28;20441;-78
2022/06/29 14:45:07;;;;;;;27.87;26.30;;;;;;;;;;5093922;28;20541;-79
2022/06/29 14:47:36;;;;;;;28.47;26.87;;;;;;;;;;5093514;28;20855;-78